Time;durP1;ratioP1;P1;durP2;ratioP2;P2;SDS_P1;SDS_P2;PMS_P1;PMS_P2;Temp;Humidity;BMP_temperature;BMP_pressure;BME280_temperature;BME280_humidity;BME280_pressure;Samples;Min_cycle;Max_cycle;Signal;HPM_P1;HPM_P2
2023/06/17 00:00:20;;;;;;;20.27;9.48;;;;;;;;;;5096478;27;20035;-78
2023/06/17 00:02:46;;;;;;;17.27;9.40;;;;;;;;;;5131328;27;20147;-79
2023/06/17 00:05:12;;;;;;;15.18;9.38;;;;;;;;;;5130890;27;20565;-78
2023/06/17 00:07:39;;;;;;;18.10;9.48;;;;;;;;;;5112922;27;20039;-78
2023/06/17 00:10:06;;;;;;;12.48;10.95;;;;;;;;;;5112486;27;20557;-77
2023/06/17 00:12:33;;;;;;;10.18;9.18;;;;;;;;;;5131177;27;20039;-79
2023/06/17 00:15:01;;;;;;;15.55;11.02;;;;;;;;;;5130475;27;20486;-78
2023/06/17 00:17:32;;;;;;;19.27;12.10;;;;;;;;;;5131382;27;20066;-78
2023/06/17 00:20:07;;;;;;;15.82;11.18;;;;;;;;;;5112186;27;20027;-78
2023/06/17 00:22:34;;;;;;;18.23;11.02;;;;;;;;;;5100629;27;20493;-79
2023/06/17 00:25:01;;;;;;;23.45;11.43;;;;;;;;;;5116629;27;20035;-79
2023/06/17 00:27:30;;;;;;;25.10;12.50;;;;;;;;;;5135290;27;20091;-78
2023/06/17 00:30:00;;;;;;;18.88;10.27;;;;;;;;;;5134703;27;20134;-78
2023/06/17 00:32:36;;;;;;;15.90;10.90;;;;;;;;;;5103050;27;20027;-78
2023/06/17 00:35:03;;;;;;;12.35;11.10;;;;;;;;;;5116674;27;20050;-79
2023/06/17 00:37:30;;;;;;;22.85;12.57;;;;;;;;;;5099932;27;20074;-79
2023/06/17 00:39:56;;;;;;;17.85;11.88;;;;;;;;;;5116106;27;20470;-78
2023/06/17 00:42:21;;;;;;;13.80;10.27;;;;;;;;;;5116316;27;20031;-79
2023/06/17 00:44:47;;;;;;;14.95;11.02;;;;;;;;;;5116545;27;20035;-77
2023/06/17 00:47:14;;;;;;;14.57;10.55;;;;;;;;;;5116174;27;20106;-79
2023/06/17 00:49:40;;;;;;;11.90;10.75;;;;;;;;;;5116352;27;20389;-79
2023/06/17 00:52:10;;;;;;;12.93;11.02;;;;;;;;;;5134597;27;20088;-78
2023/06/17 00:54:38;;;;;;;13.20;10.77;;;;;;;;;;5134964;27;20085;-77
2023/06/17 00:57:07;;;;;;;12.70;11.43;;;;;;;;;;5116539;27;20090;-78
2023/06/17 00:59:33;;;;;;;20.27;11.63;;;;;;;;;;5117018;27;20035;-79
2023/06/17 01:02:00;;;;;;;15.57;9.82;;;;;;;;;;5099484;27;20493;-79
2023/06/17 01:04:28;;;;;;;13.85;10.60;;;;;;;;;;5134612;27;20035;-79
2023/06/17 01:07:09;;;;;;;12.20;9.63;;;;;;;;;;5099502;27;20405;-79
2023/06/17 01:09:37;;;;;;;12.27;9.82;;;;;;;;;;5134775;27;20051;-76
2023/06/17 01:12:03;;;;;;;14.15;10.05;;;;;;;;;;5139534;27;20089;-77
2023/06/17 01:14:30;;;;;;;15.95;8.95;;;;;;;;;;5121223;27;20417;-79
2023/06/17 01:16:56;;;;;;;10.15;9.00;;;;;;;;;;5138458;27;20053;-76
2023/06/17 01:19:24;;;;;;;9.77;8.82;;;;;;;;;;5125368;27;20058;-79
2023/06/17 01:21:54;;;;;;;15.25;9.32;;;;;;;;;;5122838;27;20035;-76
2023/06/17 01:24:28;;;;;;;14.32;10.50;;;;;;;;;;5128295;27;20057;-80
2023/06/17 01:26:57;;;;;;;;;;;;;;;;;;5137016;27;20416;-78
2023/06/17 01:29:23;;;;;;;14.00;9.60;;;;;;;;;;5116130;27;20401;-78
2023/06/17 01:31:50;;;;;;;15.60;9.85;;;;;;;;;;5133264;27;20062;-77
2023/06/17 01:34:17;;;;;;;16.10;9.90;;;;;;;;;;5133598;27;20050;-76
2023/06/17 01:36:43;;;;;;;16.95;10.30;;;;;;;;;;5098609;27;20027;-78
2023/06/17 01:39:10;;;;;;;15.70;10.10;;;;;;;;;;5098577;27;20524;-78
2023/06/17 01:41:36;;;;;;;14.30;9.73;;;;;;;;;;5133837;27;20027;-79
2023/06/17 01:44:03;;;;;;;13.27;9.70;;;;;;;;;;5098537;27;20043;-78
2023/06/17 01:46:29;;;;;;;10.27;9.27;;;;;;;;;;5098797;27;20258;-78
2023/06/17 01:48:56;;;;;;;19.13;9.73;;;;;;;;;;5133752;27;20449;-75
2023/06/17 01:51:21;;;;;;;12.07;8.63;;;;;;;;;;5115278;27;20519;-77
2023/06/17 01:53:47;;;;;;;10.35;8.82;;;;;;;;;;5115384;27;20039;-77
2023/06/17 01:56:14;;;;;;;10.20;9.30;;;;;;;;;;5098344;27;20084;-78
2023/06/17 01:58:40;;;;;;;11.18;9.38;;;;;;;;;;5116604;27;20393;-79
2023/06/17 02:01:06;;;;;;;12.02;9.27;;;;;;;;;;5101400;27;20413;-77
2023/06/17 02:03:33;;;;;;;15.15;10.05;;;;;;;;;;5119719;27;20042;-78
2023/06/17 02:05:59;;;;;;;18.98;10.38;;;;;;;;;;5119359;27;20032;-78
2023/06/17 02:08:25;;;;;;;17.17;10.00;;;;;;;;;;5121459;27;20079;-78
2023/06/17 02:10:51;;;;;;;14.50;9.23;;;;;;;;;;5121669;27;20047;-77
2023/06/17 02:13:17;;;;;;;13.60;10.02;;;;;;;;;;5120923;27;20031;-77
2023/06/17 02:15:44;;;;;;;19.48;11.48;;;;;;;;;;5105627;27;20063;-79
2023/06/17 02:18:14;;;;;;;14.60;9.60;;;;;;;;;;5121304;27;20031;-78
2023/06/17 02:20:44;;;;;;;17.23;9.20;;;;;;;;;;5120957;27;20064;-78
2023/06/17 02:23:10;;;;;;;13.00;9.52;;;;;;;;;;5101311;27;20031;-79
2023/06/17 02:25:39;;;;;;;13.70;9.48;;;;;;;;;;5115220;27;20066;-78
2023/06/17 02:28:05;;;;;;;17.77;9.45;;;;;;;;;;5097805;27;20778;-78
2023/06/17 02:30:31;;;;;;;12.15;10.25;;;;;;;;;;5114643;27;20031;-77
2023/06/17 02:33:00;;;;;;;15.52;9.10;;;;;;;;;;5114664;27;20092;-79
2023/06/17 02:35:27;;;;;;;21.17;11.70;;;;;;;;;;5114669;27;20038;-78
2023/06/17 02:37:56;;;;;;;11.20;9.88;;;;;;;;;;5097504;27;20027;-79
2023/06/17 02:40:23;;;;;;;13.18;10.30;;;;;;;;;;5097406;27;20042;-79
2023/06/17 02:42:51;;;;;;;13.57;8.82;;;;;;;;;;5114278;27;20046;-77
2023/06/17 02:45:17;;;;;;;11.68;8.05;;;;;;;;;;5131580;27;20066;-79
2023/06/17 02:47:46;;;;;;;10.80;7.95;;;;;;;;;;5133090;27;20035;-77
2023/06/17 02:50:12;;;;;;;12.55;8.00;;;;;;;;;;5114016;27;20038;-78
2023/06/17 02:52:38;;;;;;;9.32;7.70;;;;;;;;;;5114130;27;20039;-79
2023/06/17 02:55:05;;;;;;;9.32;7.88;;;;;;;;;;5096945;27;20133;-77
2023/06/17 02:57:32;;;;;;;13.00;8.32;;;;;;;;;;5114200;27;20115;-77
2023/06/17 02:59:58;;;;;;;29.98;22.58;;;;;;;;;;5114012;27;20088;-78
2023/06/17 03:02:24;;;;;;;20.50;9.10;;;;;;;;;;5113708;27;20091;-77
2023/06/17 03:04:53;;;;;;;28.38;18.75;;;;;;;;;;5113925;27;20509;-76
2023/06/17 03:07:21;;;;;;;19.23;13.98;;;;;;;;;;5113630;27;20046;-77
2023/06/17 03:09:47;;;;;;;11.30;9.13;;;;;;;;;;5110345;28;20513;-78
2023/06/17 03:12:14;;;;;;;33.90;17.85;;;;;;;;;;5120414;28;20039;-79
2023/06/17 03:14:41;;;;;;;28.33;18.50;;;;;;;;;;5114383;28;20039;-78
2023/06/17 03:17:11;;;;;;;27.23;18.13;;;;;;;;;;5110221;28;20057;-80
2023/06/17 03:19:38;;;;;;;31.58;19.75;;;;;;;;;;5110317;28;20088;-76
2023/06/17 03:22:04;;;;;;;33.90;16.13;;;;;;;;;;5109987;28;20413;-79
2023/06/17 03:24:34;;;;;;;13.18;9.10;;;;;;;;;;5111376;28;20051;-79
2023/06/17 03:27:00;;;;;;;32.75;14.18;;;;;;;;;;5110558;28;20035;-79
2023/06/17 03:29:26;;;;;;;13.60;9.60;;;;;;;;;;5116115;28;20096;-79
2023/06/17 03:31:56;;;;;;;10.40;8.68;;;;;;;;;;5130175;28;20028;-78
2023/06/17 03:34:24;;;;;;;16.33;8.48;;;;;;;;;;5119492;28;20023;-78
2023/06/17 03:36:50;;;;;;;13.55;8.30;;;;;;;;;;5112653;28;20039;-77
2023/06/17 03:39:17;;;;;;;16.80;9.10;;;;;;;;;;5117010;28;20130;-77
2023/06/17 03:41:43;;;;;;;15.57;8.82;;;;;;;;;;5114528;28;20087;-77
2023/06/17 03:44:10;;;;;;;13.50;9.65;;;;;;;;;;5114299;28;20039;-80
2023/06/17 03:46:37;;;;;;;14.35;8.38;;;;;;;;;;5113986;28;20057;-77
2023/06/17 03:49:03;;;;;;;13.73;7.78;;;;;;;;;;5114001;28;20031;-78
2023/06/17 03:51:30;;;;;;;13.45;7.43;;;;;;;;;;5097393;28;20039;-80
2023/06/17 03:53:57;;;;;;;12.15;7.85;;;;;;;;;;5095464;28;20576;-77
2023/06/17 03:56:24;;;;;;;16.52;7.35;;;;;;;;;;5109849;28;20083;-80
2023/06/17 03:58:50;;;;;;;11.48;7.25;;;;;;;;;;5093545;28;20036;-78
2023/06/17 04:01:16;;;;;;;8.55;7.43;;;;;;;;;;5110082;28;20050;-79
2023/06/17 04:03:44;;;;;;;8.88;6.82;;;;;;;;;;5110411;28;20036;-80
2023/06/17 04:06:10;;;;;;;16.67;6.78;;;;;;;;;;5109888;28;20558;-77
2023/06/17 04:08:37;;;;;;;9.35;6.88;;;;;;;;;;5111761;28;20498;-76
2023/06/17 04:11:03;;;;;;;13.68;7.03;;;;;;;;;;5130501;27;20051;-78
2023/06/17 04:13:29;;;;;;;8.68;6.78;;;;;;;;;;5131511;27;20038;-78
2023/06/17 04:15:56;;;;;;;8.48;7.20;;;;;;;;;;5095997;27;20039;-78
2023/06/17 04:18:24;;;;;;;8.70;6.40;;;;;;;;;;5112791;27;20505;-79
2023/06/17 04:20:56;;;;;;;12.88;6.55;;;;;;;;;;5112762;28;20038;-79
2023/06/17 04:23:23;;;;;;;9.43;6.78;;;;;;;;;;5112782;27;20058;-80
2023/06/17 04:25:50;;;;;;;14.02;7.20;;;;;;;;;;5096250;28;20062;-79
2023/06/17 04:28:17;;;;;;;15.73;7.40;;;;;;;;;;5120469;28;20031;-77
2023/06/17 04:30:47;;;;;;;11.27;7.55;;;;;;;;;;5125389;27;20079;-79
2023/06/17 04:33:14;;;;;;;15.10;6.38;;;;;;;;;;5118248;28;20042;-79
2023/06/17 04:35:44;;;;;;;7.78;7.07;;;;;;;;;;5112573;28;20043;-78
2023/06/17 04:38:11;;;;;;;9.80;7.32;;;;;;;;;;5130626;27;20031;-78
2023/06/17 04:40:39;;;;;;;14.05;7.07;;;;;;;;;;5112514;28;20043;-78
2023/06/17 04:43:05;;;;;;;13.20;7.30;;;;;;;;;;5095413;27;20038;-78
2023/06/17 04:45:35;;;;;;;8.68;7.25;;;;;;;;;;5112350;27;20631;-79
2023/06/17 04:48:05;;;;;;;11.70;7.07;;;;;;;;;;5112335;27;20513;-77
2023/06/17 04:50:32;;;;;;;8.50;7.28;;;;;;;;;;5130630;27;20050;-78
2023/06/17 04:53:03;;;;;;;8.95;7.50;;;;;;;;;;5112390;28;20035;-78
2023/06/17 04:55:35;;;;;;;7.82;6.43;;;;;;;;;;5112445;27;20039;-78
2023/06/17 04:58:03;;;;;;;10.15;6.57;;;;;;;;;;5112536;27;20404;-79
2023/06/17 05:00:45;;;;;;;7.97;7.13;;;;;;;;;;5121018;28;20034;-79
2023/06/17 05:03:14;;;;;;;9.43;7.35;;;;;;;;;;5095716;28;20121;-78
2023/06/17 05:05:41;;;;;;;13.27;6.47;;;;;;;;;;5112112;27;20039;-79
2023/06/17 05:08:07;;;;;;;8.52;7.38;;;;;;;;;;5114678;27;20032;-79
2023/06/17 05:10:34;;;;;;;9.80;7.15;;;;;;;;;;5115820;27;20062;-77
2023/06/17 05:13:00;;;;;;;10.73;7.15;;;;;;;;;;5134108;27;20031;-79
2023/06/17 05:15:28;;;;;;;9.32;6.80;;;;;;;;;;5098746;27;20047;-78
2023/06/17 05:17:54;;;;;;;8.15;7.32;;;;;;;;;;5115811;27;20062;-79
2023/06/17 05:20:21;;;;;;;7.65;6.97;;;;;;;;;;5081568;27;20427;-79
2023/06/17 05:22:47;;;;;;;7.60;6.90;;;;;;;;;;5134003;27;20046;-79
2023/06/17 05:25:14;;;;;;;12.27;7.20;;;;;;;;;;5115459;27;20453;-79
2023/06/17 05:27:39;;;;;;;12.32;6.68;;;;;;;;;;5115645;27;20433;-78
2023/06/17 05:30:07;;;;;;;19.77;7.68;;;;;;;;;;5115676;27;20524;-79
2023/06/17 05:32:33;;;;;;;9.02;7.80;;;;;;;;;;5115453;27;20027;-79
2023/06/17 05:35:00;;;;;;;13.02;7.47;;;;;;;;;;5098464;27;20045;-78
2023/06/17 05:37:26;;;;;;;7.65;6.85;;;;;;;;;;5115114;27;20146;-79
2023/06/17 05:39:52;;;;;;;9.15;7.47;;;;;;;;;;5115507;27;20023;-79
2023/06/17 05:42:19;;;;;;;10.77;7.10;;;;;;;;;;5098170;27;20092;-78
2023/06/17 05:44:45;;;;;;;9.38;6.90;;;;;;;;;;5115390;27;20088;-79
2023/06/17 05:47:12;;;;;;;7.43;5.57;;;;;;;;;;5115199;27;20035;-80
2023/06/17 05:49:39;;;;;;;7.85;6.25;;;;;;;;;;5098130;27;20127;-79
2023/06/17 05:52:05;;;;;;;14.50;5.97;;;;;;;;;;5115259;27;20039;-79
2023/06/17 05:54:32;;;;;;;5.68;5.18;;;;;;;;;;5098212;27;20054;-79
2023/06/17 05:56:58;;;;;;;6.45;5.28;;;;;;;;;;5115208;27;20039;-80
2023/06/17 05:59:26;;;;;;;8.05;5.22;;;;;;;;;;5114804;27;20039;-80
2023/06/17 06:01:53;;;;;;;21.17;7.50;;;;;;;;;;5115208;27;20088;-80
2023/06/17 06:04:19;;;;;;;6.38;5.55;;;;;;;;;;5114851;27;20043;-80
2023/06/17 06:06:45;;;;;;;6.28;5.68;;;;;;;;;;5115018;27;20035;-79
2023/06/17 06:09:11;;;;;;;6.20;5.45;;;;;;;;;;5097827;27;20638;-79
2023/06/17 06:11:37;;;;;;;5.45;4.85;;;;;;;;;;5114642;27;20070;-81
2023/06/17 06:14:04;;;;;;;4.50;4.20;;;;;;;;;;5133191;27;20498;-79
2023/06/17 06:16:30;;;;;;;8.13;4.63;;;;;;;;;;5114435;27;20557;-79
2023/06/17 06:18:56;;;;;;;7.28;5.28;;;;;;;;;;5133076;27;20065;-80
2023/06/17 06:21:22;;;;;;;6.70;4.90;;;;;;;;;;5114732;27;20042;-80
2023/06/17 06:23:49;;;;;;;13.32;5.30;;;;;;;;;;5133066;27;20042;-79
2023/06/17 06:26:15;;;;;;;12.40;5.38;;;;;;;;;;5114360;27;20064;-80
2023/06/17 06:28:42;;;;;;;5.50;5.00;;;;;;;;;;5114375;27;20031;-80
2023/06/17 06:31:08;;;;;;;7.55;4.82;;;;;;;;;;5114426;27;20515;-80
2023/06/17 06:33:35;;;;;;;10.75;4.88;;;;;;;;;;5114372;27;20038;-80
2023/06/17 06:36:03;;;;;;;;;;;;;;;;;;5098207;27;20042;-80
2023/06/17 06:38:31;;;;;;;5.38;4.63;;;;;;;;;;5114218;27;20448;-80
2023/06/17 06:40:57;;;;;;;12.43;4.63;;;;;;;;;;5132410;27;20023;-78
2023/06/17 06:43:25;;;;;;;7.72;4.20;;;;;;;;;;5114233;27;20474;-81
2023/06/17 06:45:54;;;;;;;4.50;3.80;;;;;;;;;;5114660;27;20035;-80
2023/06/17 06:48:22;;;;;;;5.20;4.47;;;;;;;;;;5123015;27;20037;-80
2023/06/17 06:50:49;;;;;;;6.65;4.45;;;;;;;;;;5097867;27;20122;-80
2023/06/17 06:53:19;;;;;;;5.00;4.50;;;;;;;;;;5113896;27;20039;-80
2023/06/17 06:55:45;;;;;;;5.55;5.03;;;;;;;;;;5114237;27;20042;-79
2023/06/17 06:58:11;;;;;;;8.50;5.03;;;;;;;;;;5113882;27;20035;-80
2023/06/17 07:00:39;;;;;;;8.23;5.30;;;;;;;;;;5132004;27;20576;-80
2023/06/17 07:03:07;;;;;;;5.25;4.85;;;;;;;;;;5096815;27;20038;-79
2023/06/17 07:05:33;;;;;;;9.43;5.07;;;;;;;;;;5113879;27;20493;-79
2023/06/17 07:08:02;;;;;;;6.28;5.13;;;;;;;;;;5114054;27;20420;-79
2023/06/17 07:10:28;;;;;;;9.52;5.03;;;;;;;;;;5096696;27;20086;-80
2023/06/17 07:12:56;;;;;;;5.22;4.80;;;;;;;;;;5097256;27;20034;-80
2023/06/17 07:15:22;;;;;;;7.03;5.53;;;;;;;;;;5113164;27;20658;-80
2023/06/17 07:17:49;;;;;;;5.30;4.85;;;;;;;;;;5113592;27;20058;-80
2023/06/17 07:20:16;;;;;;;6.10;5.55;;;;;;;;;;5113677;27;20091;-79
2023/06/17 07:22:43;;;;;;;6.45;5.15;;;;;;;;;;5113747;27;20042;-79
2023/06/17 07:25:09;;;;;;;9.05;6.05;;;;;;;;;;5097235;27;20035;-81
2023/06/17 07:27:35;;;;;;;6.00;5.40;;;;;;;;;;5097337;27;20045;-80
2023/06/17 07:30:02;;;;;;;8.85;4.95;;;;;;;;;;5115666;27;20031;-79
2023/06/17 07:32:30;;;;;;;5.65;5.25;;;;;;;;;;5126351;27;20385;-82
2023/06/17 07:34:56;;;;;;;5.63;5.10;;;;;;;;;;5137294;27;20183;-81
2023/06/17 07:37:23;;;;;;;6.57;4.63;;;;;;;;;;5113288;27;20057;-79
2023/06/17 07:39:50;;;;;;;5.70;5.10;;;;;;;;;;5113284;27;20042;-79
2023/06/17 07:42:18;;;;;;;8.23;5.20;;;;;;;;;;5131577;27;20126;-79
2023/06/17 07:44:44;;;;;;;5.87;5.47;;;;;;;;;;5131426;27;20027;-80
2023/06/17 07:47:10;;;;;;;5.95;5.35;;;;;;;;;;5131324;27;20281;-80
2023/06/17 07:49:36;;;;;;;6.10;4.97;;;;;;;;;;5131461;27;20023;-80
2023/06/17 07:52:03;;;;;;;7.55;5.55;;;;;;;;;;5131205;27;20054;-80
2023/06/17 07:54:28;;;;;;;5.55;4.97;;;;;;;;;;5112652;28;20468;-79
2023/06/17 07:56:55;;;;;;;5.60;5.10;;;;;;;;;;5131381;27;20039;-80
2023/06/17 07:59:20;;;;;;;12.93;5.15;;;;;;;;;;5112934;27;20388;-79
2023/06/17 08:01:46;;;;;;;5.68;5.28;;;;;;;;;;5131121;27;20035;-81
2023/06/17 08:04:12;;;;;;;6.20;5.60;;;;;;;;;;5131372;27;20019;-80
2023/06/17 08:06:40;;;;;;;5.40;5.00;;;;;;;;;;5113301;27;20069;-80
2023/06/17 08:09:06;;;;;;;5.55;5.05;;;;;;;;;;5131489;27;20035;-79
2023/06/17 08:11:32;;;;;;;5.82;5.28;;;;;;;;;;5130978;27;20035;-80
2023/06/17 08:13:59;;;;;;;5.78;5.30;;;;;;;;;;5131359;27;20027;-80
2023/06/17 08:16:25;;;;;;;6.25;5.75;;;;;;;;;;5112628;27;20498;-81
2023/06/17 08:18:51;;;;;;;7.50;4.95;;;;;;;;;;5131002;27;20070;-80
2023/06/17 08:21:17;;;;;;;5.90;5.40;;;;;;;;;;5131056;27;20043;-80
2023/06/17 08:23:43;;;;;;;5.50;5.10;;;;;;;;;;5095840;28;20070;-80
2023/06/17 08:26:09;;;;;;;5.47;4.95;;;;;;;;;;5131065;27;20038;-80
2023/06/17 08:28:35;;;;;;;5.43;4.95;;;;;;;;;;5078893;28;20405;-80
2023/06/17 08:31:01;;;;;;;5.30;4.80;;;;;;;;;;5131036;27;20071;-80
2023/06/17 08:33:29;;;;;;;7.20;5.05;;;;;;;;;;5113761;27;20031;-80
2023/06/17 08:35:54;;;;;;;5.47;4.97;;;;;;;;;;5143399;27;20035;-80
2023/06/17 08:38:21;;;;;;;10.00;5.82;;;;;;;;;;5131054;27;20035;-80
2023/06/17 08:40:47;;;;;;;5.45;5.05;;;;;;;;;;5130529;27;20446;-79
2023/06/17 08:43:14;;;;;;;5.90;5.22;;;;;;;;;;5133674;27;20034;-81
2023/06/17 08:45:40;;;;;;;5.47;4.90;;;;;;;;;;5116260;27;20037;-80
2023/06/17 08:48:07;;;;;;;8.02;5.28;;;;;;;;;;5116344;27;20126;-79
2023/06/17 08:50:32;;;;;;;6.20;5.55;;;;;;;;;;5134635;27;20038;-80
2023/06/17 08:52:58;;;;;;;5.97;5.45;;;;;;;;;;5116526;27;20031;-79
2023/06/17 08:55:24;;;;;;;9.55;5.10;;;;;;;;;;5134807;27;20047;-82
2023/06/17 08:57:53;;;;;;;5.28;4.88;;;;;;;;;;5116134;27;20031;-80
2023/06/17 09:00:19;;;;;;;7.45;4.35;;;;;;;;;;5134786;27;20133;-80
2023/06/17 09:02:46;;;;;;;6.00;5.25;;;;;;;;;;5116322;27;20035;-77
2023/06/17 09:05:12;;;;;;;5.88;4.95;;;;;;;;;;5134586;27;20596;-80
2023/06/17 09:07:38;;;;;;;4.90;4.60;;;;;;;;;;5134143;27;20039;-78
2023/06/17 09:10:05;;;;;;;5.10;4.80;;;;;;;;;;5098808;27;20051;-80
2023/06/17 09:12:36;;;;;;;6.18;5.05;;;;;;;;;;5134120;27;20497;-81
2023/06/17 09:15:02;;;;;;;5.15;4.85;;;;;;;;;;5115817;27;20039;-80
2023/06/17 09:17:33;;;;;;;4.15;3.85;;;;;;;;;;5134048;27;20039;-80
2023/06/17 09:20:08;;;;;;;5.83;5.43;;;;;;;;;;5134433;27;20057;-80
2023/06/17 09:22:35;;;;;;;5.38;4.97;;;;;;;;;;5115373;27;20458;-80
2023/06/17 09:25:01;;;;;;;5.68;5.22;;;;;;;;;;5115627;27;20027;-80
2023/06/17 09:27:27;;;;;;;5.53;5.03;;;;;;;;;;5134168;27;20035;-79
2023/06/17 09:30:13;;;;;;;5.93;5.53;;;;;;;;;;5115846;27;20034;-79
2023/06/17 09:32:40;;;;;;;6.85;5.07;;;;;;;;;;5133999;27;20409;-79
2023/06/17 09:35:15;;;;;;;5.85;5.45;;;;;;;;;;5133910;27;20051;-80
2023/06/17 09:37:47;;;;;;;15.48;5.80;;;;;;;;;;5133856;27;20042;-80
2023/06/17 09:40:13;;;;;;;7.20;5.55;;;;;;;;;;5098799;27;20039;-80
2023/06/17 09:42:39;;;;;;;6.65;6.05;;;;;;;;;;5115214;27;20386;-79
2023/06/17 09:45:07;;;;;;;6.32;5.72;;;;;;;;;;5115208;27;20042;-79
2023/06/17 09:47:33;;;;;;;8.30;5.80;;;;;;;;;;5133288;27;20053;-80
2023/06/17 09:50:03;;;;;;;6.60;5.47;;;;;;;;;;5133413;27;20492;-79
2023/06/17 09:52:30;;;;;;;5.80;5.40;;;;;;;;;;5132818;27;20540;-79
2023/06/17 09:54:57;;;;;;;11.05;5.70;;;;;;;;;;5133602;27;20467;-81
2023/06/17 09:57:26;;;;;;;5.82;5.40;;;;;;;;;;5115675;27;20536;-82
2023/06/17 09:59:55;;;;;;;10.18;5.85;;;;;;;;;;5115347;27;20092;-81
2023/06/17 10:02:21;;;;;;;5.70;5.30;;;;;;;;;;5115376;27;20041;-79
2023/06/17 10:04:46;;;;;;;6.45;5.80;;;;;;;;;;5115016;27;20043;-80
2023/06/17 10:07:12;;;;;;;6.35;5.57;;;;;;;;;;5133491;27;20031;-81
2023/06/17 10:09:39;;;;;;;6.20;5.80;;;;;;;;;;5114663;27;20490;-79
2023/06/17 10:12:05;;;;;;;6.13;5.13;;;;;;;;;;5115136;27;20065;-81
2023/06/17 10:14:31;;;;;;;7.45;5.72;;;;;;;;;;5133128;27;20486;-80
2023/06/17 10:16:58;;;;;;;6.03;5.43;;;;;;;;;;5133763;27;20037;-82
2023/06/17 10:19:26;;;;;;;8.75;5.80;;;;;;;;;;5137161;27;20095;-81
2023/06/17 10:21:53;;;;;;;7.60;5.65;;;;;;;;;;5129373;27;20035;-79
2023/06/17 10:24:19;;;;;;;6.68;6.18;;;;;;;;;;5107315;27;20415;-79
2023/06/17 10:26:49;;;;;;;6.07;5.47;;;;;;;;;;5116274;27;20031;-80
2023/06/17 10:29:15;;;;;;;6.20;5.60;;;;;;;;;;5134866;27;20034;-79
2023/06/17 10:31:42;;;;;;;6.60;5.90;;;;;;;;;;5116537;27;20039;-79
2023/06/17 10:34:13;;;;;;;7.65;6.50;;;;;;;;;;5144761;27;20032;-81
2023/06/17 10:36:39;;;;;;;6.13;5.72;;;;;;;;;;5125539;27;20043;-79
2023/06/17 10:39:06;;;;;;;6.07;5.68;;;;;;;;;;5116741;27;20037;-80
2023/06/17 10:41:38;;;;;;;6.88;6.35;;;;;;;;;;5114951;27;20042;-81
2023/06/17 10:44:23;;;;;;;7.07;6.03;;;;;;;;;;5132838;27;20035;-80
2023/06/17 10:46:52;;;;;;;6.43;5.88;;;;;;;;;;5132447;27;20039;-79
2023/06/17 10:49:21;;;;;;;6.10;5.60;;;;;;;;;;5114096;27;20130;-79
2023/06/17 10:51:47;;;;;;;10.50;5.67;;;;;;;;;;5132386;27;20034;-79
2023/06/17 10:54:13;;;;;;;6.82;6.13;;;;;;;;;;5114329;27;20663;-80
2023/06/17 10:56:50;;;;;;;6.85;6.15;;;;;;;;;;5132455;27;20443;-79
2023/06/17 10:59:26;;;;;;;6.60;5.97;;;;;;;;;;5132316;27;20034;-79
2023/06/17 11:01:52;;;;;;;7.10;6.18;;;;;;;;;;5131979;27;20450;-80
2023/06/17 11:04:18;;;;;;;6.47;5.57;;;;;;;;;;5131816;27;20544;-79
2023/06/17 11:06:47;;;;;;;7.20;6.30;;;;;;;;;;5132228;27;20444;-80
2023/06/17 11:09:13;;;;;;;6.80;5.90;;;;;;;;;;5132029;27;20078;-80
2023/06/17 11:11:41;;;;;;;6.40;5.80;;;;;;;;;;5131796;27;20066;-79
2023/06/17 11:14:07;;;;;;;6.68;5.20;;;;;;;;;;5096552;27;20031;-80
2023/06/17 11:16:33;;;;;;;6.13;5.50;;;;;;;;;;5131816;27;20408;-80
2023/06/17 11:18:59;;;;;;;6.65;6.03;;;;;;;;;;5131879;27;20525;-80
2023/06/17 11:21:25;;;;;;;6.55;6.05;;;;;;;;;;5132011;27;20255;-79
2023/06/17 11:23:52;;;;;;;6.60;6.10;;;;;;;;;;5113123;27;20080;-80
2023/06/17 11:26:18;;;;;;;7.07;6.38;;;;;;;;;;5113546;27;20518;-79
2023/06/17 11:28:44;;;;;;;10.73;9.68;;;;;;;;;;5113016;27;20118;-78
2023/06/17 11:31:10;;;;;;;7.07;6.47;;;;;;;;;;5131721;27;20042;-80
2023/06/17 11:33:36;;;;;;;8.63;6.45;;;;;;;;;;5131285;27;20118;-80
2023/06/17 11:36:03;;;;;;;11.50;8.48;;;;;;;;;;5131665;27;20038;-80
2023/06/17 11:38:29;;;;;;;8.45;6.75;;;;;;;;;;5131450;27;20027;-79
2023/06/17 11:40:55;;;;;;;7.90;6.43;;;;;;;;;;5096197;27;20409;-81
2023/06/17 11:43:25;;;;;;;7.07;6.50;;;;;;;;;;5113333;27;20019;-80
2023/06/17 11:45:51;;;;;;;;;;;;;;;;;;5113775;27;20047;-80
2023/06/17 11:48:17;;;;;;;7.20;6.35;;;;;;;;;;5131571;27;20442;-80
2023/06/17 11:50:43;;;;;;;7.35;6.60;;;;;;;;;;5131269;27;20034;-81
2023/06/17 11:53:09;;;;;;;7.95;7.13;;;;;;;;;;5131713;27;20050;-81
2023/06/17 11:55:35;;;;;;;11.45;7.07;;;;;;;;;;5113218;27;20039;-80
2023/06/17 11:58:02;;;;;;;7.72;6.75;;;;;;;;;;5130926;27;20031;-80
2023/06/17 12:00:29;;;;;;;7.15;6.53;;;;;;;;;;5112975;27;20087;-80
2023/06/17 12:02:56;;;;;;;7.30;6.70;;;;;;;;;;5131128;27;20493;-80
2023/06/17 12:05:25;;;;;;;8.60;6.70;;;;;;;;;;5131682;27;20131;-80
2023/06/17 12:07:51;;;;;;;7.97;7.28;;;;;;;;;;5136929;27;20039;-81
2023/06/17 12:10:17;;;;;;;9.07;6.38;;;;;;;;;;5141141;27;20544;-81
2023/06/17 12:12:45;;;;;;;7.63;6.45;;;;;;;;;;5095968;27;20038;-80
2023/06/17 12:15:12;;;;;;;7.90;7.13;;;;;;;;;;5131330;27;20061;-80
2023/06/17 12:17:48;;;;;;;7.47;6.75;;;;;;;;;;5137309;27;20107;-80
2023/06/17 12:20:14;;;;;;;7.97;7.28;;;;;;;;;;5138006;27;20054;-80
2023/06/17 12:22:41;;;;;;;8.23;7.50;;;;;;;;;;5137687;27;20042;-80
2023/06/17 12:25:07;;;;;;;10.57;6.97;;;;;;;;;;5137973;27;20509;-79
2023/06/17 12:27:33;;;;;;;7.60;6.90;;;;;;;;;;5137752;27;20114;-80
2023/06/17 12:30:02;;;;;;;7.85;7.05;;;;;;;;;;5137686;27;20113;-78
2023/06/17 12:32:32;;;;;;;9.18;7.22;;;;;;;;;;5120259;27;20042;-80
2023/06/17 12:34:58;;;;;;;8.02;7.22;;;;;;;;;;5102140;27;20047;-79
2023/06/17 12:37:26;;;;;;;8.50;7.80;;;;;;;;;;5119782;27;20038;-80
2023/06/17 12:39:52;;;;;;;11.57;8.52;;;;;;;;;;5137629;27;20277;-79
2023/06/17 12:42:18;;;;;;;15.45;8.90;;;;;;;;;;5137624;27;20031;-78
2023/06/17 12:44:46;;;;;;;9.30;8.38;;;;;;;;;;5137737;27;20054;-81
2023/06/17 12:47:12;;;;;;;8.95;8.05;;;;;;;;;;5137877;27;20441;-79
2023/06/17 12:49:38;;;;;;;9.07;8.38;;;;;;;;;;5138023;27;20446;-80
2023/06/17 12:52:05;;;;;;;8.10;7.32;;;;;;;;;;5137612;27;20566;-80
2023/06/17 12:54:30;;;;;;;14.65;8.55;;;;;;;;;;5119346;27;20043;-80
2023/06/17 12:56:56;;;;;;;10.63;7.63;;;;;;;;;;5119132;27;20031;-80
2023/06/17 12:59:22;;;;;;;8.48;7.68;;;;;;;;;;5119363;27;20027;-81
2023/06/17 13:01:48;;;;;;;9.52;8.52;;;;;;;;;;5137516;27;20030;-80
2023/06/17 13:04:15;;;;;;;10.60;8.50;;;;;;;;;;5138022;27;20560;-79
2023/06/17 13:06:41;;;;;;;11.05;7.43;;;;;;;;;;5137669;27;20135;-80
2023/06/17 13:09:06;;;;;;;10.13;9.10;;;;;;;;;;5137595;27;20043;-80
2023/06/17 13:11:33;;;;;;;12.18;9.18;;;;;;;;;;5102267;27;20039;-80
2023/06/17 13:13:58;;;;;;;9.65;8.68;;;;;;;;;;5137122;27;20035;-80
2023/06/17 13:16:25;;;;;;;10.60;9.50;;;;;;;;;;5137682;27;20043;-78
2023/06/17 13:18:51;;;;;;;9.60;8.80;;;;;;;;;;5137299;27;20500;-81
2023/06/17 13:21:17;;;;;;;10.70;9.68;;;;;;;;;;5137681;27;20043;-80
2023/06/17 13:23:43;;;;;;;10.07;9.27;;;;;;;;;;5137361;27;20031;-80
2023/06/17 13:26:10;;;;;;;9.45;8.70;;;;;;;;;;5137597;27;20528;-80
2023/06/17 13:28:38;;;;;;;10.55;9.48;;;;;;;;;;5134930;27;20471;-79
2023/06/17 13:31:04;;;;;;;10.70;9.82;;;;;;;;;;5134448;27;20278;-80
2023/06/17 13:33:31;;;;;;;12.18;9.32;;;;;;;;;;5116884;27;20039;-80
2023/06/17 13:35:57;;;;;;;10.35;9.35;;;;;;;;;;5139115;27;20047;-81
2023/06/17 13:38:23;;;;;;;10.52;9.35;;;;;;;;;;5146204;27;20084;-80
2023/06/17 13:40:49;;;;;;;10.40;9.20;;;;;;;;;;5143337;27;20062;-80
2023/06/17 13:43:16;;;;;;;11.15;10.15;;;;;;;;;;5134690;27;20446;-80
2023/06/17 13:45:41;;;;;;;10.80;9.80;;;;;;;;;;5116086;27;20042;-80
2023/06/17 13:48:09;;;;;;;13.80;10.13;;;;;;;;;;5115300;27;20039;-80
2023/06/17 13:50:35;;;;;;;12.93;9.82;;;;;;;;;;5133909;27;20450;-80
2023/06/17 13:53:01;;;;;;;10.90;9.85;;;;;;;;;;5133907;27;20032;-82
2023/06/17 13:55:31;;;;;;;11.30;10.20;;;;;;;;;;5143808;27;20072;-80
2023/06/17 13:57:57;;;;;;;11.10;9.88;;;;;;;;;;5138136;27;20031;-81
2023/06/17 14:00:23;;;;;;;15.57;9.60;;;;;;;;;;5115454;27;20039;-79
2023/06/17 14:02:50;;;;;;;11.23;10.15;;;;;;;;;;5114869;27;20031;-80
2023/06/17 14:05:16;;;;;;;13.68;10.82;;;;;;;;;;5115161;27;20501;-81
2023/06/17 14:07:43;;;;;;;10.18;9.38;;;;;;;;;;5115955;27;20031;-81
2023/06/17 14:10:10;;;;;;;17.20;10.27;;;;;;;;;;5133135;27;20058;-80
2023/06/17 14:12:36;;;;;;;11.68;10.23;;;;;;;;;;5133581;27;20039;-81
2023/06/17 14:15:02;;;;;;;12.15;9.77;;;;;;;;;;5133277;27;20039;-81
2023/06/17 14:17:31;;;;;;;11.52;10.45;;;;;;;;;;5133368;27;20043;-81
2023/06/17 14:19:56;;;;;;;12.55;11.35;;;;;;;;;;5114577;27;20442;-81
2023/06/17 14:22:23;;;;;;;14.15;10.52;;;;;;;;;;5133474;27;20038;-81
2023/06/17 14:24:49;;;;;;;11.07;10.07;;;;;;;;;;5133068;27;20035;-81
2023/06/17 14:27:34;;;;;;;11.55;10.38;;;;;;;;;;5133974;27;20035;-81
2023/06/17 14:30:00;;;;;;;11.77;9.32;;;;;;;;;;5133669;27;20194;-79
2023/06/17 14:32:26;;;;;;;10.52;9.63;;;;;;;;;;5115709;27;20072;-81
2023/06/17 14:34:52;;;;;;;10.75;9.80;;;;;;;;;;5114797;27;20062;-81